createdAt,value
2022-09-12T00:01:53.191Z,60.55
2022-09-12T00:04:20.153Z,66.45
2022-09-12T00:06:46.952Z,63.25
2022-09-12T00:09:14.625Z,62.40
2022-09-12T00:11:44.109Z,59.20
2022-09-12T00:14:13.418Z,59.08
2022-09-12T00:16:40.649Z,62.58
2022-09-12T00:19:08.650Z,56.80
2022-09-12T00:21:38.246Z,64.97
2022-09-12T00:24:05.798Z,60.92
2022-09-12T00:26:33.044Z,60.92
2022-09-12T00:28:59.962Z,63.53
2022-09-12T00:31:27.643Z,64.03
2022-09-12T00:33:58.145Z,63.28
2022-09-12T00:36:26.523Z,66.22
2022-09-12T00:38:54.833Z,56.90
2022-09-12T00:41:23.558Z,60.67
2022-09-12T00:43:59.142Z,60.90
2022-09-12T00:47:08.006Z,59.78
2022-09-12T00:49:52.264Z,61.35
2022-09-12T00:52:44.269Z,60.17
2022-09-12T00:55:22.299Z,60.85
2022-09-12T00:58:03.880Z,61.63
2022-09-12T01:00:31.027Z,60.83
2022-09-12T01:03:02.376Z,56.05
2022-09-12T01:05:31.357Z,61.35
2022-09-12T01:08:00.398Z,67.40
2022-09-12T01:10:27.251Z,58.05
2022-09-12T01:12:54.301Z,58.53
2022-09-12T01:15:21.157Z,58.60
2022-09-12T01:18:19.187Z,60.00
2022-09-12T01:21:28.817Z,63.53
2022-09-12T01:24:17.964Z,54.38
2022-09-12T01:26:56.703Z,57.90
2022-09-12T01:29:56.926Z,62.75
2022-09-12T01:32:50.262Z,58.75
2022-09-12T01:35:23.131Z,63.15
2022-09-12T01:37:59.901Z,55.38
2022-09-12T01:40:45.994Z,58.42
2022-09-12T01:43:20.603Z,60.47
2022-09-12T01:45:58.401Z,58.13
2022-09-12T01:48:31.966Z,55.28
2022-09-12T01:51:13.132Z,55.45
2022-09-12T01:53:44.768Z,54.83
2022-09-12T01:56:20.349Z,51.22
2022-09-12T01:58:57.181Z,54.15
2022-09-12T02:01:30.911Z,55.30
2022-09-12T02:04:17.344Z,58.72
2022-09-12T02:06:56.637Z,56.53
2022-09-12T02:09:44.499Z,56.58
2022-09-12T02:12:15.834Z,55.85
2022-09-12T02:14:48.122Z,58.47
2022-09-12T02:17:22.960Z,62.88
2022-09-12T02:19:56.819Z,59.63
2022-09-12T02:22:27.480Z,61.85
2022-09-12T02:24:58.998Z,62.70
2022-09-12T02:27:40.997Z,58.38
2022-09-12T02:30:09.593Z,52.35
2022-09-12T02:32:44.587Z,54.92
2022-09-12T02:35:22.406Z,59.90
2022-09-12T02:38:02.165Z,55.17
2022-09-12T02:40:30.882Z,59.67
2022-09-12T02:42:58.159Z,55.72
2022-09-12T02:45:25.186Z,57.08
2022-09-12T02:48:02.194Z,58.22
2022-09-12T02:50:29.399Z,53.13
2022-09-12T02:52:59.907Z,51.83
2022-09-12T02:55:30.541Z,56.08
2022-09-12T02:57:57.447Z,54.60
2022-09-12T03:00:25.329Z,52.60
2022-09-12T03:03:43.341Z,55.15
2022-09-12T03:06:35.402Z,53.85
2022-09-12T03:09:23.412Z,52.47
2022-09-12T03:12:05.929Z,51.13
2022-09-12T03:14:50.138Z,56.17
2022-09-12T03:17:44.497Z,63.38
2022-09-12T03:20:17.089Z,58.38
2022-09-12T03:23:06.342Z,59.00
2022-09-12T03:25:38.301Z,63.65
2022-09-12T03:28:11.948Z,63.35
2022-09-12T03:30:44.951Z,61.50
2022-09-12T03:33:13.814Z,65.25
2022-09-12T03:35:41.074Z,69.72
2022-09-12T03:38:08.270Z,73.10
2022-09-12T03:40:36.272Z,66.40
2022-09-12T03:43:04.470Z,66.82
2022-09-12T03:45:31.580Z,71.47
2022-09-12T03:47:58.493Z,65.30
2022-09-12T03:50:25.636Z,69.45
2022-09-12T03:52:52.836Z,65.28
2022-09-12T03:55:20.169Z,74.40
2022-09-12T03:57:47.066Z,64.68
2022-09-12T04:00:19.008Z,68.47
2022-09-12T04:02:46.655Z,72.13
2022-09-12T04:05:13.672Z,82.22
2022-09-12T04:07:40.719Z,66.60
2022-09-12T04:10:09.657Z,74.45
2022-09-12T04:12:36.729Z,72.05
2022-09-12T04:15:03.877Z,75.05
2022-09-12T04:17:30.720Z,69.97
2022-09-12T04:19:57.491Z,79.00
2022-09-12T04:22:24.492Z,72.60
2022-09-12T04:24:51.291Z,70.82
2022-09-12T04:27:18.263Z,76.30
2022-09-12T04:29:45.229Z,74.05
2022-09-12T04:32:12.206Z,72.97
2022-09-12T04:34:39.197Z,76.07
2022-09-12T04:37:06.197Z,77.47
2022-09-12T04:39:33.028Z,80.97
2022-09-12T04:41:59.892Z,77.22
2022-09-12T04:44:26.816Z,74.63
2022-09-12T04:47:08.199Z,82.70
2022-09-12T04:49:35.499Z,78.15
2022-09-12T04:52:02.535Z,78.93
2022-09-12T04:54:29.430Z,88.90
2022-09-12T04:56:56.369Z,86.18
2022-09-12T04:59:23.489Z,86.47
2022-09-12T05:01:50.499Z,89.35
2022-09-12T05:04:17.740Z,86.85
2022-09-12T05:06:47.300Z,86.13
2022-09-12T05:09:14.601Z,87.22
2022-09-12T05:14:32.442Z,87.20
2022-09-12T05:17:01.538Z,85.93
2022-09-12T05:19:30.499Z,82.20
2022-09-12T05:21:58.005Z,90.97
2022-09-12T05:24:25.289Z,79.90
2022-09-12T05:26:58.735Z,87.70
2022-09-12T05:29:26.137Z,83.90
2022-09-12T05:31:52.925Z,77.78
2022-09-12T05:34:21.004Z,73.10
2022-09-12T05:36:48.497Z,83.85
2022-09-12T05:39:15.489Z,80.82
2022-09-12T05:41:42.323Z,80.72
2022-09-12T05:44:12.540Z,86.47
2022-09-12T05:46:41.678Z,77.68
2022-09-12T05:49:11.281Z,77.25
2022-09-12T05:51:41.712Z,78.18
2022-09-12T05:54:11.978Z,67.90
2022-09-12T05:56:40.998Z,71.03
2022-09-12T05:59:13.385Z,75.80
2022-09-12T06:01:40.455Z,69.72
2022-09-12T06:04:08.342Z,68.57
2022-09-12T06:06:45.881Z,71.10
2022-09-12T06:09:15.183Z,70.10
2022-09-12T06:11:42.156Z,72.65
2022-09-12T06:14:11.595Z,67.05
2022-09-12T06:16:39.601Z,68.88
2022-09-12T06:19:12.459Z,71.03
2022-09-12T06:21:39.981Z,68.78
2022-09-12T06:24:07.651Z,69.40
2022-09-12T06:26:35.484Z,79.03
2022-09-12T06:29:11.845Z,67.57
2022-09-12T06:31:41.484Z,65.80
2022-09-12T06:34:11.088Z,67.25
2022-09-12T06:36:40.544Z,67.30
2022-09-12T06:39:11.169Z,61.20
2022-09-12T06:41:42.997Z,55.38
2022-09-12T06:44:19.446Z,58.38
2022-09-12T06:49:14.202Z,55.10
2022-09-12T06:51:44.562Z,55.25
2022-09-12T06:54:16.785Z,43.58
2022-09-12T06:56:44.798Z,43.22
2022-09-12T06:59:11.796Z,39.20
2022-09-12T07:01:40.109Z,36.13
2022-09-12T07:04:07.261Z,38.88
2022-09-12T07:06:52.296Z,32.35
2022-09-12T07:09:19.235Z,29.40
2022-09-12T07:11:46.713Z,30.67
2022-09-12T07:14:14.935Z,27.70
2022-09-12T07:16:42.642Z,32.40
2022-09-12T07:19:10.244Z,27.92
2022-09-12T07:21:40.073Z,29.45
2022-09-12T07:24:09.663Z,25.02
2022-09-12T07:26:36.948Z,26.45
2022-09-12T07:29:25.476Z,26.20
2022-09-12T07:31:52.340Z,25.48
2022-09-12T07:34:19.199Z,24.90
2022-09-12T07:36:46.085Z,20.27
2022-09-12T07:39:13.049Z,25.98
2022-09-12T07:41:40.217Z,22.77
2022-09-12T07:44:07.237Z,20.40
2022-09-12T07:46:35.487Z,23.15
2022-09-12T07:49:03.332Z,18.92
2022-09-12T07:51:30.753Z,27.48
2022-09-12T07:53:59.680Z,23.65
2022-09-12T07:56:31.203Z,19.13
2022-09-12T07:58:59.831Z,20.17
2022-09-12T08:01:27.100Z,17.88
2022-09-12T08:03:58.750Z,19.27
2022-09-12T08:06:27.318Z,19.70
2022-09-12T08:08:58.337Z,15.80
2022-09-12T08:11:27.990Z,17.20
2022-09-12T08:13:57.181Z,15.35
2022-09-12T08:16:27.444Z,17.13
2022-09-12T08:18:54.543Z,15.25
2022-09-12T08:21:25.293Z,18.65
2022-09-12T08:23:54.311Z,21.50
2022-09-12T08:26:21.479Z,14.73
2022-09-12T08:28:49.135Z,13.30
2022-09-12T08:31:18.705Z,14.48
2022-09-12T08:33:46.078Z,15.85
2022-09-12T08:36:19.736Z,15.88
2022-09-12T08:38:48.654Z,15.98
2022-09-12T08:41:15.390Z,12.45
2022-09-12T08:44:09.403Z,15.80
2022-09-12T08:46:59.506Z,17.45
2022-09-12T08:49:36.152Z,17.27
2022-09-12T08:53:04.369Z,14.50
2022-09-12T08:55:35.361Z,16.17
2022-09-12T08:58:20.132Z,18.40
2022-09-12T09:00:58.306Z,14.63
2022-09-12T09:03:52.900Z,16.77
2022-09-12T09:06:43.876Z,12.27
2022-09-12T09:09:42.917Z,14.05
2022-09-12T09:12:31.253Z,13.35
2022-09-12T09:15:23.710Z,12.30
2022-09-12T09:18:09.855Z,11.70
2022-09-12T09:20:51.681Z,10.65
2022-09-12T09:23:33.797Z,12.95
2022-09-12T09:26:28.535Z,12.38
2022-09-12T09:29:11.054Z,11.82
2022-09-12T09:31:39.579Z,15.05
2022-09-12T09:34:19.212Z,15.25
2022-09-12T09:37:09.761Z,13.02
2022-09-12T09:40:06.947Z,11.75
2022-09-12T09:42:43.761Z,13.50
2022-09-12T09:45:16.995Z,11.50
2022-09-12T09:48:20.918Z,10.65
2022-09-12T09:50:49.433Z,11.82
2022-09-12T09:53:46.223Z,10.60
2022-09-12T09:56:36.816Z,10.95
2022-09-12T09:59:15.421Z,13.25
2022-09-12T10:01:55.092Z,13.75
2022-09-12T10:04:31.331Z,14.27
2022-09-12T10:07:00.803Z,10.57
2022-09-12T10:09:36.166Z,10.60
2022-09-12T10:15:00.733Z,12.60
2022-09-12T10:17:39.378Z,9.98
2022-09-12T10:20:38.234Z,10.07
2022-09-12T10:23:37.403Z,9.10
2022-09-12T10:26:10.728Z,8.23
2022-09-12T10:28:41.229Z,9.27
2022-09-12T10:31:13.949Z,11.38
2022-09-12T10:33:52.849Z,9.98
2022-09-12T10:36:20.914Z,8.80
2022-09-12T10:38:59.310Z,6.88
2022-09-12T10:41:26.397Z,8.23
2022-09-12T10:43:53.248Z,7.90
2022-09-12T10:46:22.009Z,10.00
2022-09-12T10:48:51.517Z,11.05
2022-09-12T10:51:24.702Z,8.10
2022-09-12T10:53:59.828Z,8.70
2022-09-12T10:56:33.708Z,10.38
2022-09-12T10:59:25.549Z,7.25
2022-09-12T11:02:42.198Z,6.32
2022-09-12T11:05:36.789Z,5.70
2022-09-12T11:08:11.109Z,9.50
2022-09-12T11:10:57.037Z,6.50
2022-09-12T11:14:04.155Z,4.95
2022-09-12T11:16:42.965Z,9.88
2022-09-12T11:19:28.992Z,10.75
2022-09-12T11:25:20.272Z,5.47
2022-09-12T11:28:06.030Z,6.25
2022-09-12T11:33:20.017Z,9.80
2022-09-12T11:35:55.010Z,6.47
2022-09-12T11:38:25.449Z,5.28
2022-09-12T11:41:00.218Z,6.75
2022-09-12T11:43:56.666Z,7.50
2022-09-12T11:46:42.361Z,7.60
2022-09-12T11:49:15.724Z,7.10
2022-09-12T11:52:07.188Z,8.52
2022-09-12T11:55:08.890Z,6.50
2022-09-12T11:57:43.857Z,7.32
2022-09-12T12:00:23.057Z,6.03
2022-09-12T12:03:19.223Z,7.05
2022-09-12T12:08:27.783Z,7.25
2022-09-12T12:10:58.363Z,6.80
2022-09-12T12:13:45.556Z,14.40
2022-09-12T12:16:21.378Z,11.13
2022-09-12T12:19:08.771Z,7.80
2022-09-12T12:21:48.346Z,9.02
2022-09-12T12:24:21.852Z,6.55
2022-09-12T12:27:25.704Z,8.35
2022-09-12T12:29:52.781Z,6.35
2022-09-12T12:32:21.150Z,9.80
2022-09-12T12:34:48.571Z,7.95
2022-09-12T12:37:21.520Z,6.10
2022-09-12T12:39:49.239Z,4.43
2022-09-12T12:42:45.174Z,7.70
2022-09-12T12:45:35.131Z,7.78
2022-09-12T12:48:16.413Z,6.82
2022-09-12T12:50:43.390Z,4.47
2022-09-12T12:53:19.720Z,7.70
2022-09-12T12:55:51.353Z,6.45
2022-09-12T12:58:40.836Z,4.95
2022-09-12T13:01:22.997Z,5.53
2022-09-12T13:04:01.490Z,4.07
2022-09-12T13:06:43.287Z,6.35
2022-09-12T13:09:25.426Z,6.95
2022-09-12T13:12:08.552Z,6.70
2022-09-12T13:14:47.456Z,6.53
2022-09-12T13:17:26.319Z,5.60
2022-09-12T13:20:27.891Z,6.85
2022-09-12T13:22:55.833Z,5.60
2022-09-12T13:25:31.138Z,8.40
2022-09-12T13:30:25.532Z,4.88
2022-09-12T13:32:53.411Z,6.00
2022-09-12T13:35:35.794Z,5.20
2022-09-12T13:38:29.932Z,6.00
2022-09-12T13:41:19.019Z,5.07
2022-09-12T13:43:47.833Z,12.25
2022-09-12T13:46:19.381Z,6.32
2022-09-12T13:48:46.730Z,4.72
2022-09-12T13:51:24.566Z,7.50
2022-09-12T13:53:54.462Z,5.75
2022-09-12T13:56:21.401Z,6.72
2022-09-12T13:59:02.626Z,5.78
2022-09-12T14:01:41.521Z,3.78
2022-09-12T14:04:43.656Z,4.22
2022-09-12T14:07:17.162Z,6.70
2022-09-12T14:09:47.232Z,7.35
2022-09-12T14:12:31.109Z,7.70
2022-09-12T14:14:58.699Z,6.22
2022-09-12T14:17:31.835Z,5.07
2022-09-12T14:20:03.426Z,6.88
2022-09-12T14:22:31.116Z,6.53
2022-09-12T14:24:59.568Z,8.85
2022-09-12T14:27:30.238Z,3.80
2022-09-12T14:30:19.898Z,4.68
2022-09-12T14:33:11.784Z,8.23
2022-09-12T14:35:43.580Z,8.27
2022-09-12T14:38:16.814Z,8.27
2022-09-12T14:40:49.456Z,5.18
2022-09-12T14:43:29.620Z,5.35
2022-09-12T14:46:07.325Z,6.85
2022-09-12T14:48:45.617Z,6.93
2022-09-12T14:51:23.297Z,5.78
2022-09-12T14:53:50.703Z,5.43
2022-09-12T14:56:20.496Z,3.80
2022-09-12T14:58:47.757Z,5.13
2022-09-12T15:01:15.148Z,6.90
2022-09-12T15:03:47.260Z,3.75
2022-09-12T15:06:36.383Z,2.50
2022-09-12T15:09:08.441Z,5.30
2022-09-12T15:11:35.529Z,3.88
2022-09-12T15:14:15.615Z,4.18
2022-09-12T15:16:42.515Z,4.10
2022-09-12T15:19:09.760Z,5.45
2022-09-12T15:21:36.777Z,5.00
2022-09-12T15:24:03.935Z,6.30
2022-09-12T15:26:31.703Z,4.63
2022-09-12T15:28:58.697Z,4.10
2022-09-12T15:31:27.215Z,4.47
2022-09-12T15:33:55.771Z,4.28
2022-09-12T15:36:24.605Z,3.63
2022-09-12T15:38:52.320Z,3.92
2022-09-12T15:41:23.913Z,5.25
2022-09-12T15:43:51.104Z,7.97
2022-09-12T15:46:19.275Z,2.50
2022-09-12T15:48:46.377Z,4.32
2022-09-12T15:51:15.758Z,5.90
2022-09-12T15:53:43.826Z,3.15
2022-09-12T15:56:10.839Z,35.30
2022-09-12T15:58:49.775Z,157.95
2022-09-12T16:01:24.505Z,12.88
2022-09-12T16:03:51.521Z,9.48
2022-09-12T16:06:18.424Z,8.93
2022-09-12T16:08:45.290Z,4.10
2022-09-12T16:11:22.012Z,6.65
2022-09-12T16:13:49.179Z,4.95
2022-09-12T16:16:16.028Z,5.57
2022-09-12T16:18:43.157Z,4.68
2022-09-12T16:21:14.273Z,7.13
2022-09-12T16:23:46.283Z,5.90
2022-09-12T16:26:13.428Z,6.07
2022-09-12T16:28:40.483Z,7.10
2022-09-12T16:31:09.197Z,3.78
2022-09-12T16:33:37.811Z,3.42
2022-09-12T16:36:06.289Z,4.20
2022-09-12T16:38:34.763Z,5.70
2022-09-12T16:41:06.836Z,4.80
2022-09-12T16:43:35.392Z,6.13
2022-09-12T16:46:05.981Z,4.35
2022-09-12T16:48:33.691Z,5.60
2022-09-12T16:51:03.045Z,4.57
2022-09-12T16:53:31.347Z,4.90
2022-09-12T16:55:58.167Z,5.50
2022-09-12T16:58:25.742Z,4.50
2022-09-12T17:01:07.899Z,3.17
2022-09-12T17:03:38.704Z,5.05
2022-09-12T17:06:14.259Z,4.47
2022-09-12T17:08:44.563Z,7.85
2022-09-12T17:11:14.032Z,5.22
2022-09-12T17:14:03.341Z,4.80
2022-09-12T17:16:29.367Z,3.33
2022-09-12T17:18:56.205Z,3.10
2022-09-12T17:21:25.967Z,2.47
2022-09-12T17:23:52.969Z,4.13
2022-09-12T17:26:20.771Z,2.40
2022-09-12T17:28:48.406Z,4.85
2022-09-12T17:31:16.181Z,2.95
2022-09-12T17:33:43.688Z,3.70
2022-09-12T17:36:16.607Z,3.42
2022-09-12T17:38:45.637Z,4.10
2022-09-12T17:41:18.929Z,6.72
2022-09-12T17:43:51.463Z,4.95
2022-09-12T17:46:23.481Z,2.33
2022-09-12T17:48:56.393Z,2.65
2022-09-12T17:51:25.192Z,3.55
2022-09-12T17:54:00.022Z,2.40
2022-09-12T17:56:29.275Z,5.65
2022-09-12T17:58:57.754Z,5.25
2022-09-12T18:01:44.555Z,6.20
2022-09-12T18:04:11.679Z,5.15
2022-09-12T18:06:40.698Z,5.88
2022-09-12T18:09:09.761Z,4.47
2022-09-12T18:11:36.877Z,5.65
2022-09-12T18:14:03.834Z,6.25
2022-09-12T18:16:31.654Z,4.50
2022-09-12T18:19:01.397Z,4.07
2022-09-12T18:21:29.295Z,4.90
2022-09-12T18:23:59.108Z,8.75
2022-09-12T18:26:28.116Z,5.60
2022-09-12T18:28:55.649Z,4.80
2022-09-12T18:31:26.603Z,8.93
2022-09-12T18:33:53.614Z,6.85
2022-09-12T18:36:21.688Z,7.20
2022-09-12T18:38:49.117Z,8.70
2022-09-12T18:41:22.090Z,10.25
2022-09-12T18:43:49.833Z,7.97
2022-09-12T18:46:18.500Z,7.35
2022-09-12T18:48:46.353Z,6.80
2022-09-12T18:51:15.958Z,7.88
2022-09-12T18:53:43.469Z,6.43
2022-09-12T18:56:12.367Z,6.30
2022-09-12T18:58:42.154Z,7.00
2022-09-12T19:01:19.247Z,5.30
2022-09-12T19:03:46.776Z,3.92
2022-09-12T19:06:18.979Z,7.32
2022-09-12T19:08:48.414Z,5.05
2022-09-12T19:11:16.045Z,7.10
2022-09-12T19:13:44.928Z,5.22
2022-09-12T19:16:15.022Z,8.77
2022-09-12T19:18:42.803Z,8.82
2022-09-12T19:21:17.789Z,4.38
2022-09-12T19:23:45.409Z,5.15
2022-09-12T19:26:14.288Z,5.35
2022-09-12T19:28:42.549Z,4.82
2022-09-12T19:31:12.808Z,5.60
2022-09-12T19:33:40.369Z,4.05
2022-09-12T19:36:22.265Z,3.88
2022-09-12T19:38:57.208Z,6.43
2022-09-12T19:41:24.328Z,6.45
2022-09-12T19:43:51.205Z,9.18
2022-09-12T19:46:20.811Z,7.00
2022-09-12T19:48:48.291Z,4.95
2022-09-12T19:51:16.332Z,8.93
2022-09-12T19:53:44.030Z,7.55
2022-09-12T19:56:12.590Z,6.72
2022-09-12T19:58:41.789Z,5.32
2022-09-12T20:01:18.341Z,4.88
2022-09-12T20:03:45.945Z,6.45
2022-09-12T20:06:16.764Z,6.20
2022-09-12T20:08:44.399Z,5.00
2022-09-12T20:11:17.462Z,5.75
2022-09-12T20:13:45.437Z,5.53
2022-09-12T20:16:25.316Z,4.45
2022-09-12T20:18:54.865Z,7.22
2022-09-12T20:21:31.139Z,5.93
2022-09-12T20:24:13.360Z,8.00
2022-09-12T20:26:40.598Z,8.40
2022-09-12T20:29:11.500Z,7.00
2022-09-12T20:31:40.992Z,7.85
2022-09-12T20:34:13.346Z,8.43
2022-09-12T20:36:41.958Z,9.27
2022-09-12T20:39:13.986Z,8.30
2022-09-12T20:41:41.145Z,10.57
2022-09-12T20:44:08.111Z,8.43
2022-09-12T20:46:35.096Z,7.45
2022-09-12T20:49:02.368Z,8.68
2022-09-12T20:51:30.493Z,8.73
2022-09-12T20:54:03.199Z,7.65
2022-09-12T20:56:31.867Z,7.30
2022-09-12T20:58:59.267Z,7.45
2022-09-12T21:01:27.607Z,8.60
2022-09-12T21:03:54.618Z,5.38
2022-09-12T21:06:21.912Z,7.65
2022-09-12T21:08:50.092Z,6.70
2022-09-12T21:11:18.512Z,7.32
2022-09-12T21:13:46.008Z,6.72
2022-09-12T21:16:18.887Z,7.70
2022-09-12T21:18:46.431Z,8.57
2022-09-12T21:21:15.727Z,5.72
2022-09-12T21:23:42.795Z,6.07
2022-09-12T21:26:09.768Z,8.25
2022-09-12T21:28:36.945Z,8.75
2022-09-12T21:31:04.592Z,5.20
2022-09-12T21:33:31.559Z,5.78
2022-09-12T21:36:03.596Z,5.93
2022-09-12T21:38:31.412Z,5.40
2022-09-12T21:41:09.868Z,7.45
2022-09-12T21:43:37.710Z,6.05
2022-09-12T21:46:06.100Z,7.95
2022-09-12T21:48:33.442Z,7.30
2022-09-12T21:51:00.767Z,8.77
2022-09-12T21:53:28.381Z,5.35
2022-09-12T21:55:55.336Z,4.72
2022-09-12T21:58:22.368Z,5.07
2022-09-12T22:00:49.673Z,6.93
2022-09-12T22:03:17.192Z,6.50
2022-09-12T22:05:44.517Z,7.50
2022-09-12T22:08:12.087Z,7.00
2022-09-12T22:10:40.143Z,5.95
2022-09-12T22:13:07.235Z,4.85
2022-09-12T22:15:40.392Z,5.07
2022-09-12T22:18:08.085Z,6.90
2022-09-12T22:20:34.948Z,9.88
2022-09-12T22:23:24.524Z,7.47
2022-09-12T22:25:55.362Z,5.68
2022-09-12T22:28:22.766Z,11.00
2022-09-12T22:30:49.761Z,9.38
2022-09-12T22:33:16.916Z,7.05
2022-09-12T22:35:44.384Z,6.03
2022-09-12T22:38:11.317Z,6.38
2022-09-12T22:40:38.351Z,9.75
2022-09-12T22:43:05.785Z,6.47
2022-09-12T22:45:32.625Z,10.00
2022-09-12T22:48:00.941Z,7.85
2022-09-12T22:50:28.283Z,9.82
2022-09-12T22:52:55.320Z,9.50
2022-09-12T22:55:22.130Z,8.98
2022-09-12T22:57:49.328Z,21.20
2022-09-12T23:00:16.247Z,9.13
2022-09-12T23:02:43.443Z,10.00
2022-09-12T23:05:10.640Z,11.25
2022-09-12T23:07:37.779Z,8.88
2022-09-12T23:10:05.173Z,8.23
2022-09-12T23:12:32.361Z,8.90
2022-09-12T23:14:59.226Z,11.82
2022-09-12T23:17:26.115Z,8.70
2022-09-12T23:19:53.126Z,14.32
2022-09-12T23:22:20.068Z,13.50
2022-09-12T23:24:47.214Z,10.13
2022-09-12T23:27:14.163Z,10.05
2022-09-12T23:29:40.990Z,9.60
2022-09-12T23:32:08.026Z,10.60
2022-09-12T23:34:35.070Z,9.98
2022-09-12T23:37:01.951Z,11.35
2022-09-12T23:39:28.961Z,12.40
2022-09-12T23:41:55.963Z,9.50
2022-09-12T23:44:22.846Z,12.68
2022-09-12T23:46:49.748Z,17.45
2022-09-12T23:49:16.659Z,12.65
2022-09-12T23:51:44.712Z,13.90
2022-09-12T23:54:11.725Z,10.38
2022-09-12T23:56:40.205Z,9.82
2022-09-12T23:59:07.114Z,11.50
